Time;durP1;ratioP1;P1;durP2;ratioP2;P2;SDS_P1;SDS_P2;PMS_P1;PMS_P2;Temp;Humidity;BMP_temperature;BMP_pressure;BME280_temperature;BME280_humidity;BME280_pressure;Samples;Min_cycle;Max_cycle;Signal;HPM_P1;HPM_P2
2022/07/06 03:01:19;;;;;;;1.48;1.10;;;25.30;36.50;;;;;;5483048;23;45720;-57
2022/07/06 03:03:45;;;;;;;2.55;1.65;;;25.20;36.40;;;;;;4957205;28;44762;-59
2022/07/06 03:06:10;;;;;;;4.15;2.45;;;25.20;36.40;;;;;;4964197;28;45487;-59
2022/07/06 03:08:36;;;;;;;6.72;3.00;;;25.10;36.50;;;;;;4957463;28;45588;-58
2022/07/06 03:11:01;;;;;;;4.78;2.08;;;25.10;36.70;;;;;;4958384;28;46123;-57
2022/07/06 03:13:28;;;;;;;4.88;2.20;;;25.00;36.70;;;;;;4967521;28;45124;-57
2022/07/06 03:15:54;;;;;;;4.20;2.33;;;25.10;36.80;;;;;;4961750;28;45126;-57
2022/07/06 03:18:19;;;;;;;3.22;1.92;;;25.10;36.60;;;;;;4966868;28;45978;-59
2022/07/06 03:20:45;;;;;;;3.25;1.83;;;25.10;36.60;;;;;;4964414;28;46140;-58
2022/07/06 03:23:10;;;;;;;6.30;2.38;;;25.10;36.60;;;;;;4959661;28;44925;-57
2022/07/06 03:25:36;;;;;;;3.05;2.08;;;25.10;36.70;;;;;;4968802;28;45582;-58
2022/07/06 03:28:01;;;;;;;4.45;1.80;;;25.10;36.70;;;;;;4963675;28;44981;-56
2022/07/06 03:30:27;;;;;;;4.10;1.65;;;25.00;36.70;;;;;;4966059;28;45881;-57
2022/07/06 03:32:53;;;;;;;3.17;1.50;;;25.00;36.80;;;;;;4964073;28;45147;-58
2022/07/06 03:35:18;;;;;;;3.70;1.70;;;25.00;36.90;;;;;;4965833;28;44973;-59
2022/07/06 03:37:44;;;;;;;1.67;1.25;;;24.90;37.00;;;;;;4966801;28;45560;-56
2022/07/06 03:40:10;;;;;;;2.35;1.25;;;24.90;37.10;;;;;;4968589;28;45612;-58
2022/07/06 03:42:37;;;;;;;1.67;1.15;;;24.90;37.10;;;;;;4948435;28;45049;-56
2022/07/06 03:45:04;;;;;;;3.72;1.17;;;24.90;37.10;;;;;;4962676;28;45031;-58
2022/07/06 03:47:29;;;;;;;2.10;1.58;;;24.90;37.00;;;;;;4965405;28;44790;-59
2022/07/06 03:49:55;;;;;;;1.52;0.98;;;24.90;37.00;;;;;;4953115;28;46512;-59
2022/07/06 03:52:21;;;;;;;1.40;1.00;;;24.80;37.10;;;;;;4942998;28;44912;-57
2022/07/06 03:54:47;;;;;;;1.83;1.13;;;24.80;37.20;;;;;;4962050;28;44828;-58
2022/07/06 03:57:13;;;;;;;0.85;0.80;;;24.80;37.20;;;;;;4965108;28;44792;-57
2022/07/06 03:59:39;;;;;;;2.30;1.50;;;24.80;37.20;;;;;;4966435;28;45068;-57
2022/07/06 04:02:05;;;;;;;3.72;1.42;;;24.80;37.20;;;;;;4960346;28;45301;-57
2022/07/06 04:04:31;;;;;;;1.48;1.10;;;24.80;37.20;;;;;;4965785;28;45136;-56
2022/07/06 04:06:56;;;;;;;1.27;1.10;;;24.80;37.20;;;;;;4950063;28;45106;-57
2022/07/06 04:09:22;;;;;;;0.88;0.88;;;24.80;37.20;;;;;;4967078;28;46518;-57
2022/07/06 04:11:47;;;;;;;3.90;1.00;;;24.80;37.20;;;;;;4965501;28;44869;-57
2022/07/06 04:14:13;;;;;;;1.63;1.10;;;24.90;37.10;;;;;;4966371;28;44879;-59
2022/07/06 04:16:39;;;;;;;1.30;1.15;;;25.00;36.90;;;;;;4963864;28;46162;-58
2022/07/06 04:19:04;;;;;;;2.08;1.20;;;25.10;36.90;;;;;;4965349;28;46243;-56
2022/07/06 04:21:30;;;;;;;1.50;1.20;;;25.20;36.90;;;;;;4964506;28;44987;-56
2022/07/06 04:23:55;;;;;;;1.48;1.23;;;25.20;36.70;;;;;;4963587;28;44773;-58
2022/07/06 04:26:21;;;;;;;1.95;1.08;;;25.20;36.60;;;;;;4964850;28;45129;-59
2022/07/06 04:28:46;;;;;;;2.28;1.02;;;25.30;36.60;;;;;;4965093;28;45349;-56
2022/07/06 04:31:15;;;;;;;1.75;0.93;;;25.30;36.60;;;;;;4966025;28;44987;-56
2022/07/06 04:33:42;;;;;;;1.30;1.00;;;25.30;36.60;;;;;;4968148;28;44858;-57
2022/07/06 04:36:07;;;;;;;1.40;0.90;;;25.30;36.70;;;;;;4963506;28;44761;-59
2022/07/06 04:38:33;;;;;;;1.75;0.93;;;25.30;36.70;;;;;;4946330;28;45004;-57
2022/07/06 04:40:58;;;;;;;0.85;0.80;;;25.30;37.40;;;;;;4965920;28;44998;-58
2022/07/06 04:43:24;;;;;;;1.30;0.85;;;25.30;36.80;;;;;;4966247;28;45335;-57
2022/07/06 04:45:49;;;;;;;2.70;1.00;;;25.30;36.80;;;;;;4965417;28;45060;-57
2022/07/06 04:48:15;;;;;;;1.77;0.88;;;25.30;36.80;;;;;;4967092;28;46310;-57
2022/07/06 04:50:40;;;;;;;1.77;1.00;;;25.30;36.80;;;;;;4959930;28;45116;-56
2022/07/06 04:53:06;;;;;;;6.22;1.00;;;25.30;36.90;;;;;;4963974;28;45076;-57
2022/07/06 04:55:32;;;;;;;4.10;0.80;;;25.30;36.90;;;;;;4947962;28;45026;-58
2022/07/06 04:57:57;;;;;;;0.98;0.88;;;25.30;37.00;;;;;;4955167;28;45533;-59
2022/07/06 05:00:23;;;;;;;1.02;0.85;;;25.30;37.10;;;;;;4960845;28;45188;-59
2022/07/06 05:02:49;;;;;;;2.70;0.95;;;25.30;37.20;;;;;;4946006;28;45031;-57
2022/07/06 05:05:14;;;;;;;0.93;0.70;;;25.30;37.10;;;;;;4961793;28;45249;-57
2022/07/06 05:07:40;;;;;;;2.38;0.90;;;25.30;37.20;;;;;;4957727;28;45124;-58
2022/07/06 05:10:07;;;;;;;3.47;1.00;;;25.30;37.20;;;;;;4961268;28;45219;-59
2022/07/06 05:12:33;;;;;;;1.75;0.90;;;25.30;37.20;;;;;;4962459;28;45213;-58
2022/07/06 05:14:59;;;;;;;0.80;0.80;;;25.30;37.30;;;;;;4961188;28;45008;-59
2022/07/06 05:17:25;;;;;;;2.03;1.00;;;25.30;37.30;;;;;;4947629;28;45165;-58
2022/07/06 05:19:50;;;;;;;2.35;1.10;;;25.30;37.40;;;;;;4947980;28;44985;-60
2022/07/06 05:22:16;;;;;;;3.03;1.27;;;25.30;37.40;;;;;;4962569;28;45345;-58
2022/07/06 05:24:42;;;;;;;2.13;1.10;;;25.30;37.50;;;;;;4959566;28;45309;-59
2022/07/06 05:27:07;;;;;;;2.15;1.10;;;25.20;37.50;;;;;;4955630;28;46310;-57
2022/07/06 05:29:33;;;;;;;2.72;1.10;;;25.20;37.50;;;;;;4966987;28;44979;-59
2022/07/06 05:31:58;;;;;;;4.70;1.63;;;25.20;37.50;;;;;;4948792;28;45107;-57
2022/07/06 05:34:24;;;;;;;4.72;1.60;;;25.20;37.50;;;;;;4960673;28;44930;-59
2022/07/06 05:36:49;;;;;;;4.50;1.35;;;25.30;37.50;;;;;;4966168;28;46162;-57
2022/07/06 05:39:19;;;;;;;2.80;1.20;;;25.30;37.40;;;;;;4952136;28;44978;-58
2022/07/06 05:41:45;;;;;;;1.58;1.20;;;25.40;37.30;;;;;;4967586;28;45063;-57
2022/07/06 05:44:10;;;;;;;1.92;1.30;;;25.40;37.20;;;;;;4950677;28;45240;-59
2022/07/06 05:46:36;;;;;;;1.67;1.10;;;25.40;37.10;;;;;;4946432;28;45500;-57
2022/07/06 05:51:45;;;;;;;3.78;1.00;;;25.40;36.90;;;;;;4970332;28;45797;-57
2022/07/06 05:54:11;;;;;;;0.90;0.80;;;25.40;37.00;;;;;;4960672;28;45261;-57
2022/07/06 05:56:37;;;;;;;2.78;0.88;;;25.30;37.10;;;;;;4965885;28;46372;-58
2022/07/06 05:59:02;;;;;;;5.38;1.10;;;25.40;37.20;;;;;;4966360;28;44961;-57
2022/07/06 06:01:28;;;;;;;1.00;0.90;;;25.30;37.10;;;;;;4967089;28;45012;-56
2022/07/06 06:03:53;;;;;;;2.00;1.20;;;25.40;37.20;;;;;;4956643;28;45043;-57
2022/07/06 06:06:19;;;;;;;2.40;0.80;;;25.40;37.10;;;;;;4970900;28;44945;-56
2022/07/06 06:08:44;;;;;;;2.33;0.85;;;25.40;37.00;;;;;;4965650;28;45156;-54
2022/07/06 06:11:10;;;;;;;0.70;0.70;;;25.50;36.90;;;;;;4964555;28;45084;-55
2022/07/06 06:13:36;;;;;;;2.05;1.08;;;25.50;37.00;;;;;;4965432;28;45107;-56
2022/07/06 06:16:01;;;;;;;2.90;0.80;;;25.50;36.90;;;;;;4965650;28;46078;-56
2022/07/06 06:18:27;;;;;;;0.80;0.80;;;25.50;36.90;;;;;;4969897;28;45042;-58
2022/07/06 06:20:53;;;;;;;1.75;1.00;;;25.50;36.90;;;;;;4950413;28;44954;-58
2022/07/06 06:23:18;;;;;;;3.58;1.00;;;25.60;36.90;;;;;;4953044;28;45195;-55
2022/07/06 06:25:44;;;;;;;2.35;0.80;;;25.60;37.00;;;;;;4968059;28;46122;-56
2022/07/06 06:28:10;;;;;;;0.65;0.65;;;25.60;36.80;;;;;;4969721;28;44935;-56
2022/07/06 06:30:36;;;;;;;5.78;0.75;;;25.70;36.70;;;;;;4953463;28;44838;-57
2022/07/06 06:33:20;;;;;;;2.20;0.77;;;25.70;36.70;;;;;;4968518;28;44840;-58
2022/07/06 06:35:47;;;;;;;1.95;0.80;;;25.70;36.90;;;;;;4950496;28;45108;-59
2022/07/06 06:38:13;;;;;;;1.00;0.80;;;25.70;36.60;;;;;;4969830;28;44850;-61
2022/07/06 06:40:38;;;;;;;6.75;0.82;;;25.80;36.80;;;;;;4966082;28;45041;-57
2022/07/06 06:43:04;;;;;;;1.20;0.95;;;25.80;36.60;;;;;;4964477;28;44876;-57
2022/07/06 06:45:30;;;;;;;3.53;0.95;;;25.80;36.60;;;;;;4937341;28;46150;-59
2022/07/06 06:47:55;;;;;;;1.50;0.88;;;25.90;36.60;;;;;;4967412;28;44653;-59
2022/07/06 06:50:23;;;;;;;2.33;1.00;;;25.90;36.60;;;;;;4965334;28;44990;-58
2022/07/06 06:52:49;;;;;;;2.13;0.85;;;26.00;36.50;;;;;;4963352;28;45156;-58
2022/07/06 06:55:14;;;;;;;1.70;0.88;;;26.00;36.40;;;;;;4969330;28;46222;-61
2022/07/06 06:57:40;;;;;;;2.92;0.90;;;26.00;36.40;;;;;;4962689;28;44656;-57
2022/07/06 07:00:06;;;;;;;2.42;1.10;;;26.10;36.20;;;;;;4969032;28;45013;-58
2022/07/06 07:02:35;;;;;;;1.77;1.05;;;26.10;36.20;;;;;;4948378;28;44787;-60
2022/07/06 07:05:00;;;;;;;4.05;1.15;;;26.10;36.20;;;;;;4965621;28;45211;-60
2022/07/06 07:07:26;;;;;;;2.53;1.10;;;26.10;36.10;;;;;;4967402;28;44949;-58
2022/07/06 07:09:51;;;;;;;2.70;1.27;;;26.10;36.00;;;;;;4963313;28;44746;-59
2022/07/06 07:12:17;;;;;;;1.85;1.02;;;26.10;36.10;;;;;;4967258;28;45157;-60
2022/07/06 07:14:43;;;;;;;2.92;1.02;;;26.10;36.10;;;;;;4967763;28;44976;-59
2022/07/06 07:17:10;;;;;;;7.40;1.23;;;26.10;36.20;;;;;;4954924;28;44966;-60
2022/07/06 07:19:35;;;;;;;4.35;1.40;;;26.10;36.10;;;;;;4967054;28;45352;-60
2022/07/06 07:22:01;;;;;;;2.75;1.17;;;26.20;36.20;;;;;;4960221;28;44968;-58
2022/07/06 07:24:28;;;;;;;3.15;1.23;;;26.20;36.20;;;;;;4951720;28;46544;-61
2022/07/06 07:26:53;;;;;;;2.83;1.23;;;26.20;36.20;;;;;;4964816;28;44655;-59
2022/07/06 07:29:19;;;;;;;4.15;1.10;;;26.20;36.10;;;;;;4966470;28;45095;-58
2022/07/06 07:31:44;;;;;;;4.20;1.40;;;26.20;36.10;;;;;;4961750;28;45368;-60
2022/07/06 07:34:10;;;;;;;8.50;2.70;;;26.30;36.10;;;;;;4964711;28;45998;-60
2022/07/06 07:36:36;;;;;;;7.50;2.20;;;26.30;36.00;;;;;;4955882;28;45207;-59
2022/07/06 07:39:02;;;;;;;5.18;1.55;;;26.30;35.90;;;;;;4953040;28;44843;-59
2022/07/06 07:41:28;;;;;;;4.07;1.30;;;26.30;35.80;;;;;;4966879;28;44917;-59
2022/07/06 07:43:53;;;;;;;3.05;1.23;;;26.30;35.90;;;;;;4949412;28;45959;-55
2022/07/06 07:46:19;;;;;;;3.90;1.25;;;26.40;36.00;;;;;;4965731;28;44670;-57
2022/07/06 07:48:44;;;;;;;1.90;1.10;;;26.40;35.90;;;;;;4964665;28;44713;-58
2022/07/06 07:51:10;;;;;;;4.95;1.45;;;26.40;35.90;;;;;;4964272;28;44740;-58
2022/07/06 07:53:35;;;;;;;3.70;1.10;;;26.50;35.80;;;;;;4948894;28;46369;-54
2022/07/06 07:56:01;;;;;;;3.25;1.15;;;26.50;35.80;;;;;;4959687;28;45201;-55
2022/07/06 07:58:27;;;;;;;2.30;1.08;;;26.50;35.70;;;;;;4968052;28;45053;-57
2022/07/06 08:00:52;;;;;;;4.10;0.88;;;26.60;35.50;;;;;;4950774;28;45250;-58
2022/07/06 08:03:18;;;;;;;2.90;1.00;;;26.50;36.10;;;;;;4952163;28;47707;-58
2022/07/06 08:05:43;;;;;;;1.88;0.82;;;26.50;35.40;;;;;;4958142;28;44892;-60
2022/07/06 08:08:09;;;;;;;2.45;1.02;;;26.60;35.40;;;;;;4943864;28;44788;-58
2022/07/06 08:10:35;;;;;;;3.35;1.17;;;26.60;35.30;;;;;;4945424;28;45161;-58
2022/07/06 08:13:00;;;;;;;2.13;0.90;;;26.60;35.20;;;;;;4948795;28;46643;-59
2022/07/06 08:15:26;;;;;;;3.05;0.77;;;26.60;35.20;;;;;;4964869;28;44927;-59
2022/07/06 08:17:51;;;;;;;4.40;0.90;;;26.60;35.00;;;;;;4966575;28;44940;-60
2022/07/06 08:20:17;;;;;;;1.50;0.65;;;26.60;35.00;;;;;;4964283;28;45240;-59
2022/07/06 08:22:43;;;;;;;3.03;1.10;;;26.60;34.90;;;;;;4962356;28;46108;-57
2022/07/06 08:25:08;;;;;;;2.65;1.05;;;26.70;34.90;;;;;;4964975;28;45292;-60
2022/07/06 08:27:34;;;;;;;4.40;0.90;;;26.70;35.00;;;;;;4963464;28;44971;-58
2022/07/06 08:30:00;;;;;;;3.28;1.05;;;26.70;35.00;;;;;;4967718;28;45012;-55
2022/07/06 08:32:26;;;;;;;4.00;0.80;;;26.70;34.90;;;;;;4965981;28;46027;-58
2022/07/06 08:34:52;;;;;;;1.67;0.70;;;26.70;34.90;;;;;;4961229;28;45016;-60
2022/07/06 08:37:19;;;;;;;3.75;0.80;;;26.70;34.70;;;;;;4962602;28;44821;-58
2022/07/06 08:39:45;;;;;;;1.95;1.00;;;26.80;34.80;;;;;;4964132;28;45130;-56
2022/07/06 08:42:10;;;;;;;3.92;1.00;;;26.80;34.70;;;;;;4962955;28;46416;-57
2022/07/06 08:44:36;;;;;;;2.28;0.95;;;26.80;34.60;;;;;;4952069;28;45190;-59
2022/07/06 08:47:04;;;;;;;2.47;0.90;;;26.80;34.50;;;;;;4966684;28;44870;-56
2022/07/06 08:49:31;;;;;;;1.73;0.90;;;26.80;34.40;;;;;;4931320;28;44857;-57
2022/07/06 08:51:56;;;;;;;6.68;1.13;;;26.80;34.40;;;;;;4949318;28;44996;-55
2022/07/06 08:54:22;;;;;;;3.00;0.75;;;26.80;34.20;;;;;;4948683;28;44992;-54
2022/07/06 08:56:48;;;;;;;4.25;1.25;;;26.80;34.20;;;;;;4961815;28;44948;-57
2022/07/06 08:59:13;;;;;;;4.18;0.60;;;26.90;34.20;;;;;;4965665;28;45519;-57
2022/07/06 09:01:39;;;;;;;1.60;0.85;;;26.90;34.20;;;;;;4948226;28;45464;-58
2022/07/06 09:04:06;;;;;;;1.63;0.60;;;26.90;34.20;;;;;;4964519;28;45955;-60
2022/07/06 09:06:32;;;;;;;1.40;0.60;;;26.90;34.00;;;;;;4957817;28;45033;-58
2022/07/06 09:08:58;;;;;;;1.40;0.80;;;27.00;34.10;;;;;;4929382;28;45186;-58
2022/07/06 09:11:25;;;;;;;3.67;1.30;;;27.00;33.90;;;;;;4949677;28;45111;-59
2022/07/06 09:13:51;;;;;;;5.50;1.13;;;27.00;33.90;;;;;;4960245;28;45015;-59
2022/07/06 09:16:17;;;;;;;2.80;1.00;;;27.00;33.70;;;;;;4966215;28;44949;-59
2022/07/06 09:18:45;;;;;;;3.08;0.90;;;27.00;33.70;;;;;;4965806;28;45345;-60
2022/07/06 09:21:11;;;;;;;2.85;1.00;;;27.00;34.20;;;;;;4947852;28;45513;-59
2022/07/06 09:23:37;;;;;;;2.75;1.00;;;27.00;33.60;;;;;;4932853;28;44872;-60
2022/07/06 09:26:04;;;;;;;2.80;1.20;;;27.10;33.50;;;;;;4964572;28;44858;-56
2022/07/06 09:28:45;;;;;;;5.00;1.00;;;27.10;33.50;;;;;;4966098;28;45154;-60
2022/07/06 09:31:10;;;;;;;2.10;1.10;;;27.10;33.40;;;;;;4955710;28;45394;-59
2022/07/06 09:33:36;;;;;;;2.80;1.23;;;27.10;33.60;;;;;;4966476;28;44956;-58
2022/07/06 09:36:02;;;;;;;7.47;1.42;;;27.10;34.10;;;;;;4960666;28;44986;-58
2022/07/06 09:38:27;;;;;;;3.10;1.20;;;27.20;33.50;;;;;;4965889;28;45107;-59
2022/07/06 09:40:53;;;;;;;5.47;1.60;;;27.20;33.40;;;;;;4965383;28;45067;-60
2022/07/06 09:43:20;;;;;;;5.78;1.30;;;27.20;33.40;;;;;;4966717;28;45495;-58
2022/07/06 09:45:48;;;;;;;4.20;1.55;;;27.20;33.50;;;;;;4969786;28;44757;-57
2022/07/06 09:48:21;;;;;;;8.00;1.70;;;27.20;33.40;;;;;;4965339;28;44961;-57
2022/07/06 09:50:47;;;;;;;5.55;1.10;;;27.20;33.40;;;;;;4968677;28;46409;-59
2022/07/06 09:53:13;;;;;;;1.92;0.80;;;27.20;33.50;;;;;;4965916;28;44810;-60
2022/07/06 09:55:42;;;;;;;1.45;0.98;;;27.30;33.40;;;;;;4969337;28;44815;-59
2022/07/06 09:58:08;;;;;;;2.22;0.90;;;27.30;33.30;;;;;;4967802;28;44768;-60
2022/07/06 10:00:33;;;;;;;6.18;1.00;;;27.30;33.30;;;;;;4955112;28;46055;-58
2022/07/06 10:02:59;;;;;;;2.67;1.20;;;27.40;33.30;;;;;;4952786;28;44642;-59
2022/07/06 10:05:29;;;;;;;5.40;1.15;;;27.40;33.30;;;;;;4949774;28;44683;-60
2022/07/06 10:07:56;;;;;;;2.97;1.20;;;27.40;33.20;;;;;;4950583;28;45123;-59
2022/07/06 10:10:24;;;;;;;4.32;1.25;;;27.40;33.10;;;;;;4968228;28;46063;-60
2022/07/06 10:12:50;;;;;;;2.53;1.00;;;27.40;33.20;;;;;;4948160;28;45054;-60
2022/07/06 10:15:16;;;;;;;3.25;0.80;;;27.40;33.10;;;;;;4951619;28;45058;-61
2022/07/06 10:17:42;;;;;;;3.10;1.20;;;27.40;33.10;;;;;;4942155;28;44986;-58
2022/07/06 10:20:08;;;;;;;6.45;1.00;;;27.40;33.10;;;;;;4940068;28;47105;-60
2022/07/06 10:22:34;;;;;;;1.30;0.60;;;27.40;33.10;;;;;;4916364;28;45227;-62
2022/07/06 10:25:01;;;;;;;2.10;0.82;;;27.40;33.10;;;;;;4947959;28;44908;-60
2022/07/06 10:27:27;;;;;;;9.93;0.73;;;27.40;33.20;;;;;;4936056;28;45002;-60
2022/07/06 10:29:52;;;;;;;2.60;0.73;;;27.40;33.30;;;;;;4949300;28;45598;-60
2022/07/06 10:32:21;;;;;;;1.40;0.65;;;27.40;33.20;;;;;;4969691;28;44682;-62
2022/07/06 10:34:47;;;;;;;1.15;0.70;;;27.40;33.30;;;;;;4934135;28;44955;-59
2022/07/06 10:37:23;;;;;;;5.90;1.00;;;27.40;33.30;;;;;;4948302;28;44967;-60
2022/07/06 10:42:49;;;;;;;1.48;0.80;;;27.40;33.30;;;;;;4966490;28;44682;-60
2022/07/06 10:45:19;;;;;;;2.10;1.00;;;27.50;33.10;;;;;;4949110;28;44912;-61
2022/07/06 10:47:44;;;;;;;3.33;0.80;;;27.50;33.20;;;;;;4936154;28;45365;-59
2022/07/06 10:50:11;;;;;;;2.05;0.90;;;27.50;33.20;;;;;;4946683;28;47167;-62
2022/07/06 10:52:58;;;;;;;4.93;1.00;;;27.50;33.10;;;;;;4967231;28;45260;-61
2022/07/06 10:55:35;;;;;;;2.97;0.77;;;27.50;32.90;;;;;;4943712;28;45114;-62
2022/07/06 10:58:01;;;;;;;2.70;1.20;;;27.60;33.00;;;;;;4961583;28;45061;-58
2022/07/06 11:00:41;;;;;;;5.40;1.35;;;27.50;33.10;;;;;;4954770;28;46010;-59
2022/07/06 11:03:33;;;;;;;5.15;1.40;;;27.50;33.10;;;;;;4956498;28;45030;-59
2022/07/06 11:06:05;;;;;;;5.28;1.35;;;27.50;33.10;;;;;;4967839;28;45084;-59
2022/07/06 11:08:57;;;;;;;5.07;1.60;;;27.50;33.20;;;;;;4970758;28;44680;-58
2022/07/06 11:11:23;;;;;;;6.50;2.08;;;27.50;32.70;;;;;;4944044;28;45168;-59
2022/07/06 11:13:49;;;;;;;5.32;1.80;;;27.50;32.80;;;;;;4970728;28;44613;-57
2022/07/06 11:16:16;;;;;;;3.05;1.50;;;27.50;32.40;;;;;;4971328;28;45005;-57
2022/07/06 11:18:45;;;;;;;2.42;1.23;;;27.50;32.50;;;;;;4954670;28;44956;-59
2022/07/06 11:21:18;;;;;;;6.53;1.23;;;27.50;32.50;;;;;;4955227;28;45092;-59
2022/07/06 11:23:45;;;;;;;1.85;0.80;;;27.50;32.30;;;;;;4969556;28;45011;-59
2022/07/06 11:26:11;;;;;;;3.38;1.05;;;27.50;32.40;;;;;;4967113;28;44658;-60
2022/07/06 11:28:37;;;;;;;2.10;0.95;;;27.50;32.30;;;;;;4957630;28;45246;-61
2022/07/06 11:31:02;;;;;;;1.73;0.65;;;27.50;32.20;;;;;;4964161;28;45108;-60
2022/07/06 11:33:31;;;;;;;5.70;0.80;;;27.50;32.10;;;;;;4968245;28;44779;-63
2022/07/06 11:36:23;;;;;;;5.10;0.90;;;27.60;31.80;;;;;;4953603;28;44848;-61
2022/07/06 11:38:49;;;;;;;1.70;0.50;;;27.60;31.40;;;;;;4964817;28;44700;-61
2022/07/06 11:41:15;;;;;;;0.88;0.63;;;27.60;31.90;;;;;;4955182;28;46264;-59
2022/07/06 11:43:45;;;;;;;5.68;0.60;;;27.60;31.80;;;;;;4951236;28;44693;-59
2022/07/06 11:46:23;;;;;;;0.90;0.70;;;27.70;31.70;;;;;;4963972;28;45159;-63
2022/07/06 11:48:49;;;;;;;1.83;0.60;;;27.70;31.30;;;;;;4967845;28;45134;-62
2022/07/06 11:51:15;;;;;;;0.93;0.63;;;27.70;31.40;;;;;;4970364;28;46418;-58
2022/07/06 11:53:49;;;;;;;1.33;0.60;;;27.70;31.30;;;;;;4952812;28;45241;-61
2022/07/06 11:56:15;;;;;;;2.00;0.60;;;27.80;31.40;;;;;;4965828;28;45266;-60
2022/07/06 11:58:43;;;;;;;1.35;0.70;;;27.80;31.50;;;;;;4957353;28;45057;-61
2022/07/06 12:01:10;;;;;;;3.38;0.60;;;27.80;31.50;;;;;;4958959;28;45181;-60
2022/07/06 12:03:36;;;;;;;1.15;0.68;;;27.90;31.50;;;;;;4947552;28;44731;-60
2022/07/06 12:06:03;;;;;;;5.05;0.80;;;27.90;31.40;;;;;;4965527;28;44973;-61
2022/07/06 12:08:28;;;;;;;0.98;0.40;;;27.90;31.10;;;;;;4953170;28;44954;-61
2022/07/06 12:10:55;;;;;;;0.68;0.50;;;27.90;31.00;;;;;;4961824;28;46099;-60
2022/07/06 12:13:21;;;;;;;2.72;0.60;;;27.90;31.00;;;;;;4968031;28;44854;-62
2022/07/06 12:15:46;;;;;;;1.08;0.60;;;27.90;31.00;;;;;;4945745;28;44719;-62
2022/07/06 12:18:12;;;;;;;1.50;0.45;;;27.90;31.00;;;;;;4961572;28;45064;-59
2022/07/06 12:20:37;;;;;;;1.45;0.57;;;27.90;30.70;;;;;;4950891;28;46181;-61
2022/07/06 12:23:04;;;;;;;3.22;0.65;;;27.90;30.60;;;;;;4950997;28;45031;-60
2022/07/06 12:25:31;;;;;;;3.70;0.28;;;28.00;30.60;;;;;;4967638;28;45157;-61
2022/07/06 12:27:56;;;;;;;3.50;0.60;;;28.00;30.40;;;;;;4950718;28;45069;-59
2022/07/06 12:30:22;;;;;;;1.55;0.55;;;28.00;30.40;;;;;;4969531;28;46489;-55
2022/07/06 12:33:08;;;;;;;1.02;0.57;;;28.10;30.50;;;;;;4963102;28;44990;-58
2022/07/06 12:35:33;;;;;;;1.75;0.52;;;28.10;30.60;;;;;;4953067;28;44929;-60
2022/07/06 12:38:00;;;;;;;1.95;0.40;;;28.10;30.60;;;;;;4956142;28;45096;-61
2022/07/06 12:40:27;;;;;;;6.75;0.70;;;28.10;30.70;;;;;;4953859;28;45396;-59
2022/07/06 12:42:53;;;;;;;2.13;0.70;;;28.10;30.70;;;;;;4965142;28;45790;-60
2022/07/06 12:45:19;;;;;;;2.88;0.50;;;28.10;30.70;;;;;;4961777;28;45006;-59
2022/07/06 12:48:01;;;;;;;3.50;0.63;;;28.10;30.60;;;;;;4964536;28;44831;-57
2022/07/06 12:50:34;;;;;;;2.53;0.90;;;28.20;30.50;;;;;;4967345;28;44956;-57
2022/07/06 12:53:00;;;;;;;2.33;0.90;;;28.20;30.40;;;;;;4961662;28;45249;-61
2022/07/06 12:55:27;;;;;;;1.95;0.63;;;28.20;30.50;;;;;;4966588;28;45135;-59
2022/07/06 12:57:53;;;;;;;1.45;0.70;;;28.20;30.40;;;;;;4965324;28;45041;-59
2022/07/06 13:00:18;;;;;;;1.85;0.75;;;28.20;30.20;;;;;;4946145;28;45707;-57
2022/07/06 13:02:45;;;;;;;1.02;0.80;;;28.20;30.00;;;;;;4965099;28;45022;-59
2022/07/06 13:05:12;;;;;;;0.82;0.50;;;28.20;30.00;;;;;;4966626;28;45285;-56
2022/07/06 13:07:43;;;;;;;1.73;0.50;;;28.20;29.90;;;;;;4969198;28;45204;-57
2022/07/06 13:10:10;;;;;;;0.88;0.55;;;28.30;29.90;;;;;;4946426;28;45939;-58
2022/07/06 13:12:35;;;;;;;2.20;0.70;;;28.30;29.90;;;;;;4967348;28;45046;-57
2022/07/06 13:15:01;;;;;;;1.17;0.50;;;28.40;29.90;;;;;;4967249;28;44890;-57
2022/07/06 13:17:27;;;;;;;3.33;0.70;;;28.40;30.00;;;;;;4967904;28;44955;-60
2022/07/06 13:19:53;;;;;;;0.50;0.50;;;28.40;29.90;;;;;;4965877;28;46027;-58
2022/07/06 13:22:18;;;;;;;1.20;0.40;;;28.40;29.90;;;;;;4963091;28;45068;-56
2022/07/06 13:24:44;;;;;;;1.13;0.60;;;28.40;29.90;;;;;;4968083;28;44739;-60
2022/07/06 13:27:10;;;;;;;2.67;0.70;;;28.40;29.90;;;;;;4969752;28;44998;-57
2022/07/06 13:29:35;;;;;;;2.33;0.70;;;28.40;29.80;;;;;;4953309;28;46149;-56
2022/07/06 13:32:01;;;;;;;2.33;0.65;;;28.40;29.70;;;;;;4961165;28;45463;-56
2022/07/06 13:34:27;;;;;;;3.15;0.65;;;28.40;29.60;;;;;;4966266;28;44931;-59
2022/07/06 13:36:53;;;;;;;3.25;0.60;;;28.50;29.60;;;;;;4966536;28;45018;-57
2022/07/06 13:39:18;;;;;;;1.27;0.80;;;28.50;29.50;;;;;;4950259;28;46101;-56
2022/07/06 13:41:44;;;;;;;3.00;0.50;;;28.50;29.40;;;;;;4966006;28;45679;-58
2022/07/06 13:44:11;;;;;;;0.90;0.40;;;28.50;29.50;;;;;;4966543;28;45497;-59
2022/07/06 13:46:37;;;;;;;1.23;0.60;;;28.60;29.60;;;;;;4969772;28;45020;-57
2022/07/06 13:49:03;;;;;;;3.72;0.57;;;28.60;29.40;;;;;;4966925;28;45853;-57
2022/07/06 13:51:29;;;;;;;1.20;0.55;;;28.60;29.40;;;;;;4966916;28;44899;-59
2022/07/06 13:53:54;;;;;;;1.33;0.57;;;28.60;29.40;;;;;;4966184;28;44665;-57
2022/07/06 13:56:20;;;;;;;3.83;0.55;;;28.60;29.30;;;;;;4965911;28;45127;-58
2022/07/06 13:58:46;;;;;;;2.58;0.75;;;28.60;29.40;;;;;;4953323;28;46723;-60
2022/07/06 14:01:11;;;;;;;3.15;0.68;;;28.60;29.40;;;;;;4972708;28;45056;-58
2022/07/06 14:03:37;;;;;;;1.10;0.57;;;28.60;29.40;;;;;;4965859;28;44901;-58
2022/07/06 14:06:04;;;;;;;1.85;0.40;;;28.70;29.40;;;;;;4967288;28;44926;-57
2022/07/06 14:08:29;;;;;;;1.17;0.50;;;28.70;29.40;;;;;;4962577;28;46049;-58
2022/07/06 14:10:56;;;;;;;0.85;0.40;;;28.70;29.30;;;;;;4955096;28;44897;-57
2022/07/06 14:13:21;;;;;;;1.88;0.60;;;28.70;29.00;;;;;;4967993;28;45057;-56
2022/07/06 14:15:47;;;;;;;0.30;0.30;;;28.70;28.80;;;;;;4973809;28;44793;-58
2022/07/06 14:18:14;;;;;;;0.93;0.50;;;28.70;28.60;;;;;;4970487;28;46992;-58
2022/07/06 14:20:40;;;;;;;1.92;0.50;;;28.80;28.50;;;;;;4967685;28;44953;-59
2022/07/06 14:23:05;;;;;;;4.68;0.47;;;28.80;28.50;;;;;;4967551;28;44907;-57
2022/07/06 14:25:31;;;;;;;2.35;0.40;;;28.80;28.50;;;;;;4948760;28;45106;-57
2022/07/06 14:27:57;;;;;;;1.63;0.60;;;28.80;28.30;;;;;;4956165;28;46080;-59
2022/07/06 14:30:22;;;;;;;2.13;0.32;;;28.80;28.20;;;;;;4965199;28;45098;-53
2022/07/06 14:32:48;;;;;;;0.47;0.30;;;28.80;28.20;;;;;;4965263;28;45290;-56
2022/07/06 14:35:13;;;;;;;0.52;0.45;;;28.80;28.10;;;;;;4973913;28;45351;-59
2022/07/06 14:37:39;;;;;;;0.68;0.40;;;28.80;28.20;;;;;;4953549;28;45195;-56
2022/07/06 14:40:05;;;;;;;1.27;0.68;;;28.80;28.20;;;;;;4965278;28;45070;-59
2022/07/06 14:42:31;;;;;;;2.47;0.40;;;28.80;28.40;;;;;;4969438;28;44988;-57
2022/07/06 14:44:56;;;;;;;0.85;0.55;;;28.90;28.30;;;;;;4954269;28;46364;-56
2022/07/06 14:47:22;;;;;;;1.67;0.60;;;28.90;28.10;;;;;;4967365;28;46146;-54
2022/07/06 14:49:47;;;;;;;2.50;0.50;;;28.90;28.10;;;;;;4964754;28;44674;-61
2022/07/06 14:52:13;;;;;;;2.08;0.68;;;28.90;28.00;;;;;;4959650;28;45157;-60
2022/07/06 14:54:38;;;;;;;2.28;0.63;;;28.90;28.00;;;;;;4964009;28;44785;-59
2022/07/06 14:57:04;;;;;;;3.45;0.60;;;28.90;28.10;;;;;;4964777;28;45091;-60
2022/07/06 14:59:33;;;;;;;3.80;0.63;;;28.90;27.90;;;;;;4966136;28;44796;-56
2022/07/06 15:01:59;;;;;;;1.48;0.60;;;28.90;27.80;;;;;;4967084;28;45641;-54
2022/07/06 15:04:24;;;;;;;1.27;0.60;;;28.90;27.80;;;;;;4966741;28;44927;-54
2022/07/06 15:06:50;;;;;;;0.70;0.47;;;28.90;27.80;;;;;;4967040;28;46010;-53
2022/07/06 15:09:16;;;;;;;0.43;0.43;;;29.00;27.80;;;;;;4961584;28;44686;-53
2022/07/06 15:11:41;;;;;;;1.67;0.50;;;28.90;27.60;;;;;;4963759;28;45004;-57
2022/07/06 15:14:07;;;;;;;0.57;0.40;;;28.90;27.50;;;;;;4936359;28;45016;-57
2022/07/06 15:16:33;;;;;;;0.65;0.30;;;29.00;27.50;;;;;;4969862;28;45513;-58
2022/07/06 15:18:58;;;;;;;1.98;0.40;;;28.90;27.40;;;;;;4968841;28;45256;-55
2022/07/06 15:21:24;;;;;;;2.75;0.55;;;29.00;27.40;;;;;;4970196;28;45269;-57
2022/07/06 15:23:50;;;;;;;1.08;0.50;;;29.00;27.30;;;;;;4958713;28;44963;-55
2022/07/06 15:26:15;;;;;;;0.85;0.40;;;29.00;27.20;;;;;;4949910;28;45352;-57
2022/07/06 15:28:41;;;;;;;1.90;0.50;;;29.00;27.20;;;;;;4933356;28;45451;-57
2022/07/06 15:31:06;;;;;;;1.05;0.60;;;29.00;27.30;;;;;;4964504;28;44912;-57
2022/07/06 15:33:32;;;;;;;0.60;0.40;;;29.00;27.20;;;;;;4967194;28;45045;-57
2022/07/06 15:35:57;;;;;;;1.40;0.50;;;29.00;27.30;;;;;;4960606;28;45582;-60
2022/07/06 15:38:23;;;;;;;0.75;0.50;;;29.00;27.30;;;;;;4967571;28;44971;-55
2022/07/06 15:41:09;;;;;;;0.60;0.55;;;29.00;27.20;;;;;;4945348;28;45037;-57
2022/07/06 15:43:34;;;;;;;1.25;0.32;;;29.00;27.30;;;;;;4965587;28;44786;-62
2022/07/06 15:46:01;;;;;;;5.20;0.43;;;29.00;27.20;;;;;;4966975;28;46221;-61
2022/07/06 15:48:27;;;;;;;0.80;0.47;;;29.00;27.10;;;;;;4966600;28;44923;-60
2022/07/06 15:50:53;;;;;;;1.30;0.35;;;29.00;27.00;;;;;;4949669;28;44670;-60